Time;durP1;ratioP1;P1;durP2;ratioP2;P2;SDS_P1;SDS_P2;PMS_P1;PMS_P2;Temp;Humidity;BMP_temperature;BMP_pressure;BME280_temperature;BME280_humidity;BME280_pressure;Samples;Min_cycle;Max_cycle;Signal;HPM_P1;HPM_P2
2024/01/26 00:01:18;;;;;;;37.45;22.40;;;;;;;;;;5074602;28;20051;-68
2024/01/26 00:03:44;;;;;;;41.40;23.45;;;;;;;;;;5073224;28;20095;-68
2024/01/26 00:06:12;;;;;;;37.05;21.13;;;;;;;;;;5079656;28;20036;-68
2024/01/26 00:08:38;;;;;;;42.53;23.23;;;;;;;;;;5092919;28;20049;-68
2024/01/26 00:11:05;;;;;;;40.53;22.02;;;;;;;;;;5078661;28;20396;-68
2024/01/26 00:13:31;;;;;;;32.83;20.50;;;;;;;;;;5082670;28;20564;-68
2024/01/26 00:15:58;;;;;;;36.72;23.35;;;;;;;;;;5073694;28;20101;-69
2024/01/26 00:18:25;;;;;;;39.60;21.13;;;;;;;;;;5083976;28;20048;-69
2024/01/26 00:20:51;;;;;;;37.30;22.70;;;;;;;;;;5083720;28;20055;-68
2024/01/26 00:23:18;;;;;;;35.80;22.00;;;;;;;;;;5079780;28;20672;-68
2024/01/26 00:25:44;;;;;;;31.52;21.55;;;;;;;;;;5083962;28;20441;-68
2024/01/26 00:28:11;;;;;;;32.45;21.30;;;;;;;;;;5057164;28;20063;-69
2024/01/26 00:30:38;;;;;;;36.97;23.63;;;;;;;;;;5083794;28;20102;-68
2024/01/26 00:33:04;;;;;;;34.85;21.15;;;;;;;;;;5088037;28;20149;-70
2024/01/26 00:35:31;;;;;;;35.53;21.40;;;;;;;;;;5082795;28;20101;-68
2024/01/26 00:37:57;;;;;;;35.83;22.08;;;;;;;;;;5087872;28;20040;-69
2024/01/26 00:40:23;;;;;;;33.17;21.92;;;;;;;;;;5082525;28;20036;-68
2024/01/26 00:42:50;;;;;;;36.28;22.40;;;;;;;;;;5083702;28;20048;-68
2024/01/26 00:45:16;;;;;;;32.95;22.17;;;;;;;;;;5079082;28;20040;-70
2024/01/26 00:47:43;;;;;;;37.95;22.65;;;;;;;;;;5087814;28;20514;-69
2024/01/26 00:50:09;;;;;;;38.30;22.00;;;;;;;;;;5068787;28;20130;-69
2024/01/26 00:52:36;;;;;;;40.78;22.15;;;;;;;;;;5063211;28;20044;-68
2024/01/26 00:55:03;;;;;;;37.25;22.98;;;;;;;;;;5086100;28;20075;-69
2024/01/26 00:57:29;;;;;;;31.70;21.52;;;;;;;;;;5075513;28;20823;-69
2024/01/26 00:59:56;;;;;;;33.97;21.35;;;;;;;;;;5086623;28;20048;-69
2024/01/26 01:02:23;;;;;;;37.60;24.08;;;;;;;;;;5089125;28;20135;-70
2024/01/26 01:04:50;;;;;;;36.03;24.05;;;;;;;;;;5077112;28;20053;-68
2024/01/26 01:07:16;;;;;;;36.42;23.42;;;;;;;;;;5090083;28;20055;-68
2024/01/26 01:09:42;;;;;;;35.97;22.95;;;;;;;;;;5083086;28;20079;-69
2024/01/26 01:12:09;;;;;;;30.70;21.08;;;;;;;;;;5084268;28;20059;-69
2024/01/26 01:14:36;;;;;;;35.60;21.92;;;;;;;;;;5082010;28;20044;-69
2024/01/26 01:17:04;;;;;;;38.03;22.43;;;;;;;;;;5068517;28;20113;-68
2024/01/26 01:19:31;;;;;;;32.47;20.85;;;;;;;;;;5086529;28;20423;-69
2024/01/26 01:21:57;;;;;;;31.88;21.17;;;;;;;;;;5087182;28;20132;-69
2024/01/26 01:24:24;;;;;;;30.13;20.00;;;;;;;;;;5080588;28;20047;-68
2024/01/26 01:26:50;;;;;;;32.70;22.27;;;;;;;;;;5068477;28;20812;-69
2024/01/26 01:29:16;;;;;;;30.48;19.42;;;;;;;;;;5069514;28;20047;-69
2024/01/26 01:31:43;;;;;;;31.13;20.30;;;;;;;;;;5065746;28;20055;-69
2024/01/26 01:34:09;;;;;;;31.83;20.45;;;;;;;;;;5086411;28;20056;-69
2024/01/26 01:36:36;;;;;;;32.90;20.58;;;;;;;;;;5075219;28;20472;-69
2024/01/26 01:39:02;;;;;;;33.17;20.98;;;;;;;;;;5076690;28;20075;-69
2024/01/26 01:41:29;;;;;;;33.15;20.40;;;;;;;;;;5085351;28;20105;-69
2024/01/26 01:43:56;;;;;;;32.42;19.65;;;;;;;;;;5060811;28;20082;-69
2024/01/26 01:46:22;;;;;;;28.33;18.52;;;;;;;;;;5084694;28;20109;-68
2024/01/26 01:48:49;;;;;;;27.30;18.02;;;;;;;;;;5082761;28;20605;-69
2024/01/26 01:51:16;;;;;;;28.23;18.45;;;;;;;;;;5074087;28;20048;-70
2024/01/26 01:53:43;;;;;;;28.42;17.60;;;;;;;;;;5080447;28;20548;-69
2024/01/26 01:56:10;;;;;;;26.67;17.77;;;;;;;;;;5078032;28;21008;-69
2024/01/26 01:58:42;;;;;;;29.90;18.65;;;;;;;;;;5076093;28;20564;-69
2024/01/26 02:01:09;;;;;;;25.08;18.80;;;;;;;;;;5069123;28;20076;-68
2024/01/26 02:03:35;;;;;;;25.10;18.50;;;;;;;;;;5064418;28;20054;-69
2024/01/26 02:06:02;;;;;;;28.65;18.65;;;;;;;;;;5078579;28;20630;-69
2024/01/26 02:08:29;;;;;;;30.65;18.52;;;;;;;;;;5072437;28;20072;-69
2024/01/26 02:10:56;;;;;;;25.63;17.98;;;;;;;;;;5082288;28;20063;-69
2024/01/26 02:13:22;;;;;;;26.45;17.52;;;;;;;;;;5057791;28;20045;-69
2024/01/26 02:15:48;;;;;;;25.00;17.27;;;;;;;;;;5083372;28;20109;-69
2024/01/26 02:18:15;;;;;;;25.02;18.08;;;;;;;;;;5079793;28;20048;-69
2024/01/26 02:20:42;;;;;;;24.15;16.13;;;;;;;;;;5077035;28;20052;-69
2024/01/26 02:23:23;;;;;;;23.75;16.83;;;;;;;;;;5081375;28;20411;-69
2024/01/26 02:25:49;;;;;;;24.23;15.80;;;;;;;;;;5056294;28;20083;-69
2024/01/26 02:28:16;;;;;;;24.98;17.08;;;;;;;;;;5067348;28;20560;-69
2024/01/26 02:30:42;;;;;;;23.45;16.40;;;;;;;;;;5061426;28;20052;-70
2024/01/26 02:33:09;;;;;;;19.92;14.93;;;;;;;;;;5081891;28;20447;-70
2024/01/26 02:35:35;;;;;;;22.98;15.80;;;;;;;;;;5082696;28;20532;-69
2024/01/26 02:38:02;;;;;;;20.83;15.02;;;;;;;;;;5079784;28;20075;-69
2024/01/26 02:40:29;;;;;;;19.60;14.13;;;;;;;;;;5086476;28;20044;-68
2024/01/26 02:42:56;;;;;;;18.38;14.75;;;;;;;;;;5079090;28;20059;-69
2024/01/26 02:45:24;;;;;;;20.98;13.32;;;;;;;;;;5083044;28;20067;-70
2024/01/26 02:47:50;;;;;;;22.15;14.55;;;;;;;;;;5081340;28;20181;-69
2024/01/26 02:50:17;;;;;;;19.73;13.95;;;;;;;;;;5090237;28;20044;-69
2024/01/26 02:52:43;;;;;;;19.45;13.95;;;;;;;;;;5084201;28;20051;-69
2024/01/26 02:55:09;;;;;;;20.85;13.75;;;;;;;;;;5080160;28;20056;-68
2024/01/26 02:57:36;;;;;;;16.50;12.30;;;;;;;;;;5085363;28;20061;-69
2024/01/26 03:00:04;;;;;;;18.67;12.05;;;;;;;;;;5073741;28;20549;-69
2024/01/26 03:02:31;;;;;;;;;;;;;;;;;;5063648;28;20054;-69
2024/01/26 03:04:57;;;;;;;16.00;11.13;;;;;;;;;;5067948;28;20677;-69
2024/01/26 03:07:23;;;;;;;16.98;10.38;;;;;;;;;;5087027;28;20127;-69
2024/01/26 03:09:50;;;;;;;16.75;9.88;;;;;;;;;;5090332;28;20055;-69
2024/01/26 03:12:16;;;;;;;14.93;10.70;;;;;;;;;;5079650;28;20044;-70
2024/01/26 03:14:43;;;;;;;12.93;9.23;;;;;;;;;;5093549;28;20050;-69
2024/01/26 03:17:09;;;;;;;12.48;9.63;;;;;;;;;;5077896;28;20139;-69
2024/01/26 03:19:36;;;;;;;11.32;8.10;;;;;;;;;;5084285;28;20420;-68
2024/01/26 03:22:03;;;;;;;10.05;8.20;;;;;;;;;;5090089;28;20400;-69
2024/01/26 03:24:29;;;;;;;14.43;9.93;;;;;;;;;;5079417;28;20052;-69
2024/01/26 03:26:55;;;;;;;13.02;8.48;;;;;;;;;;5079983;28;20051;-69
2024/01/26 03:29:22;;;;;;;12.68;8.07;;;;;;;;;;5073692;28;20043;-69
2024/01/26 03:31:48;;;;;;;9.57;7.88;;;;;;;;;;5084617;28;20040;-69
2024/01/26 03:34:15;;;;;;;12.95;7.55;;;;;;;;;;5049236;28;20415;-70
2024/01/26 03:36:41;;;;;;;12.45;8.07;;;;;;;;;;5084260;28;20085;-68
2024/01/26 03:39:09;;;;;;;11.15;7.57;;;;;;;;;;5084727;28;20155;-69
2024/01/26 03:41:40;;;;;;;10.65;7.10;;;;;;;;;;5075071;28;20044;-69
2024/01/26 03:44:07;;;;;;;11.65;7.88;;;;;;;;;;5080043;28;20056;-69
2024/01/26 03:46:33;;;;;;;12.32;8.25;;;;;;;;;;5079925;28;20139;-69
2024/01/26 03:49:03;;;;;;;12.80;7.88;;;;;;;;;;5086905;28;20117;-69
2024/01/26 03:51:30;;;;;;;10.82;7.47;;;;;;;;;;5079347;28;20526;-69
2024/01/26 03:53:59;;;;;;;9.88;7.03;;;;;;;;;;5084007;28;20055;-69
2024/01/26 03:56:25;;;;;;;9.63;6.40;;;;;;;;;;5078261;28;20454;-70
2024/01/26 03:58:53;;;;;;;9.23;6.32;;;;;;;;;;5081933;28;20149;-68
2024/01/26 04:01:20;;;;;;;9.13;5.90;;;;;;;;;;5096132;28;20101;-70
2024/01/26 04:03:47;;;;;;;11.10;6.13;;;;;;;;;;5071918;28;20316;-69
2024/01/26 04:06:14;;;;;;;10.07;6.40;;;;;;;;;;5081689;28;20462;-69
2024/01/26 04:08:40;;;;;;;8.10;5.18;;;;;;;;;;5080941;28;20606;-69
2024/01/26 04:11:07;;;;;;;8.80;5.90;;;;;;;;;;5079029;28;20133;-69
2024/01/26 04:13:33;;;;;;;11.55;5.90;;;;;;;;;;5070321;28;20143;-69
2024/01/26 04:16:00;;;;;;;8.70;5.60;;;;;;;;;;5082095;28;20078;-68
2024/01/26 04:18:26;;;;;;;7.90;5.53;;;;;;;;;;5081344;28;20113;-68
2024/01/26 04:20:53;;;;;;;7.57;5.18;;;;;;;;;;5077501;28;20806;-68
2024/01/26 04:23:20;;;;;;;8.57;6.35;;;;;;;;;;5094976;28;20058;-68
2024/01/26 04:25:46;;;;;;;10.88;5.70;;;;;;;;;;5076261;28;20134;-69
2024/01/26 04:28:13;;;;;;;9.55;5.32;;;;;;;;;;5082545;28;20056;-69
2024/01/26 04:30:42;;;;;;;8.25;5.72;;;;;;;;;;5088472;28;20059;-69
2024/01/26 04:33:08;;;;;;;7.30;5.60;;;;;;;;;;5065012;28;20126;-68
2024/01/26 04:35:35;;;;;;;9.70;5.30;;;;;;;;;;5087743;28;20062;-69
2024/01/26 04:38:02;;;;;;;10.13;5.13;;;;;;;;;;5083625;28;20047;-69
2024/01/26 04:40:28;;;;;;;10.15;5.50;;;;;;;;;;5077908;28;20102;-69
2024/01/26 04:42:55;;;;;;;8.55;5.18;;;;;;;;;;5088020;28;20051;-69
2024/01/26 04:45:21;;;;;;;7.65;4.95;;;;;;;;;;5081890;28;20140;-68
2024/01/26 04:47:48;;;;;;;6.40;4.97;;;;;;;;;;5087180;28;20487;-67
2024/01/26 04:50:14;;;;;;;7.85;5.65;;;;;;;;;;5072547;28;20458;-70
2024/01/26 04:52:40;;;;;;;8.80;5.55;;;;;;;;;;5082703;28;20097;-68
2024/01/26 04:55:09;;;;;;;7.50;4.78;;;;;;;;;;5087902;28;21641;-69
2024/01/26 04:57:36;;;;;;;7.00;4.65;;;;;;;;;;5081665;28;20048;-73
2024/01/26 05:00:03;;;;;;;10.15;5.75;;;;;;;;;;5080576;28;20048;-69
2024/01/26 05:02:30;;;;;;;10.13;5.50;;;;;;;;;;5074731;28;20064;-68
2024/01/26 05:04:56;;;;;;;9.73;6.10;;;;;;;;;;5085061;28;20709;-69
2024/01/26 05:07:23;;;;;;;8.35;4.85;;;;;;;;;;5077024;28;20103;-69
2024/01/26 05:09:49;;;;;;;7.47;5.25;;;;;;;;;;5061107;28;20056;-69
2024/01/26 05:12:16;;;;;;;8.65;5.50;;;;;;;;;;5083050;28;20051;-69
2024/01/26 05:14:43;;;;;;;10.65;6.20;;;;;;;;;;5081166;28;20570;-70
2024/01/26 05:17:10;;;;;;;8.52;5.82;;;;;;;;;;5077407;28;20040;-69
2024/01/26 05:19:36;;;;;;;10.20;6.20;;;;;;;;;;5059949;28;20049;-69
2024/01/26 05:22:02;;;;;;;9.32;6.03;;;;;;;;;;5066768;28;20056;-68
2024/01/26 05:24:29;;;;;;;11.18;6.13;;;;;;;;;;5077302;28;20094;-70
2024/01/26 05:26:55;;;;;;;12.30;7.40;;;;;;;;;;5070912;28;20117;-68
2024/01/26 05:29:22;;;;;;;10.82;6.60;;;;;;;;;;5086856;28;20079;-69
2024/01/26 05:31:52;;;;;;;14.23;7.45;;;;;;;;;;5080266;28;20043;-69
2024/01/26 05:34:19;;;;;;;10.40;7.35;;;;;;;;;;5081824;28;20105;-68
2024/01/26 05:36:45;;;;;;;11.52;7.35;;;;;;;;;;5080962;28;20048;-69
2024/01/26 05:39:12;;;;;;;14.75;8.45;;;;;;;;;;5083361;28;20629;-68
2024/01/26 05:41:38;;;;;;;14.20;7.82;;;;;;;;;;5086982;28;20531;-69
2024/01/26 05:44:05;;;;;;;10.55;7.13;;;;;;;;;;5079761;28;20055;-69
2024/01/26 05:46:31;;;;;;;12.90;7.10;;;;;;;;;;5086237;28;20105;-68
2024/01/26 05:48:58;;;;;;;12.93;7.72;;;;;;;;;;5079896;28;20171;-66
2024/01/26 05:51:25;;;;;;;12.18;8.02;;;;;;;;;;5068189;28;20277;-69
2024/01/26 05:53:52;;;;;;;10.60;7.75;;;;;;;;;;5086334;28;20075;-70
2024/01/26 05:56:19;;;;;;;10.68;8.73;;;;;;;;;;5080847;28;20059;-69
2024/01/26 05:58:45;;;;;;;11.45;8.05;;;;;;;;;;5091817;28;20067;-68
2024/01/26 06:01:12;;;;;;;11.90;8.40;;;;;;;;;;5087918;28;20055;-67
2024/01/26 06:03:38;;;;;;;11.60;8.18;;;;;;;;;;5085251;28;20072;-68
2024/01/26 06:06:05;;;;;;;15.35;10.73;;;;;;;;;;5062289;28;20047;-68
2024/01/26 06:08:32;;;;;;;12.93;9.48;;;;;;;;;;5071175;28;20044;-68
2024/01/26 06:10:58;;;;;;;11.85;9.77;;;;;;;;;;5086252;28;20047;-69
2024/01/26 06:13:25;;;;;;;13.30;8.38;;;;;;;;;;5078623;28;20058;-68
2024/01/26 06:15:51;;;;;;;15.68;9.07;;;;;;;;;;5080413;28;20056;-67
2024/01/26 06:18:18;;;;;;;13.50;8.20;;;;;;;;;;5078238;28;20123;-69
2024/01/26 06:20:45;;;;;;;13.27;8.55;;;;;;;;;;5084631;28;20102;-68
2024/01/26 06:23:11;;;;;;;12.88;9.13;;;;;;;;;;5089898;28;20087;-68
2024/01/26 06:25:37;;;;;;;10.80;7.88;;;;;;;;;;5061272;28;20052;-69
2024/01/26 06:28:04;;;;;;;12.32;8.38;;;;;;;;;;5083240;28;20105;-69
2024/01/26 06:30:30;;;;;;;15.00;9.18;;;;;;;;;;5075618;28;20055;-71
2024/01/26 06:32:57;;;;;;;12.23;9.00;;;;;;;;;;5084540;28;20040;-69
2024/01/26 06:35:23;;;;;;;13.25;9.60;;;;;;;;;;5081902;28;20079;-69
2024/01/26 06:37:50;;;;;;;14.65;9.52;;;;;;;;;;5084497;28;20052;-68
2024/01/26 06:40:16;;;;;;;9.90;8.48;;;;;;;;;;5086402;28;20496;-68
2024/01/26 06:42:42;;;;;;;14.32;8.50;;;;;;;;;;5075322;28;20044;-69
2024/01/26 06:45:09;;;;;;;10.93;8.20;;;;;;;;;;5064053;28;20062;-68
2024/01/26 06:47:36;;;;;;;12.73;8.35;;;;;;;;;;5060599;28;20051;-69
2024/01/26 06:50:04;;;;;;;10.43;8.13;;;;;;;;;;5074563;28;20090;-68
2024/01/26 06:52:31;;;;;;;15.30;9.52;;;;;;;;;;5087227;28;20036;-68
2024/01/26 06:54:58;;;;;;;10.00;7.88;;;;;;;;;;5061278;28;20083;-69
2024/01/26 06:57:24;;;;;;;11.15;8.95;;;;;;;;;;5092086;28;20453;-69
2024/01/26 06:59:50;;;;;;;12.00;9.43;;;;;;;;;;5068729;28;20159;-68
2024/01/26 07:02:17;;;;;;;12.57;8.52;;;;;;;;;;5091425;28;20435;-69
2024/01/26 07:04:44;;;;;;;11.10;8.85;;;;;;;;;;5079211;28;20540;-70
2024/01/26 07:07:10;;;;;;;11.05;8.02;;;;;;;;;;5084160;28;20048;-70
2024/01/26 07:09:37;;;;;;;13.30;9.52;;;;;;;;;;5085353;28;20055;-71
2024/01/26 07:12:04;;;;;;;11.57;7.65;;;;;;;;;;5072432;28;20535;-70
2024/01/26 07:14:33;;;;;;;12.85;7.30;;;;;;;;;;5084066;28;20423;-71
2024/01/26 07:16:59;;;;;;;10.20;8.07;;;;;;;;;;5071390;28;20079;-70
2024/01/26 07:19:26;;;;;;;10.55;7.40;;;;;;;;;;5085821;28;20518;-71
2024/01/26 07:21:53;;;;;;;11.77;8.75;;;;;;;;;;5086831;28;20545;-69
2024/01/26 07:24:19;;;;;;;9.63;6.20;;;;;;;;;;5078766;28;20063;-68
2024/01/26 07:26:46;;;;;;;9.27;6.10;;;;;;;;;;5081000;28;20512;-70
2024/01/26 07:29:13;;;;;;;7.95;6.65;;;;;;;;;;5079421;28;20058;-71
2024/01/26 07:31:41;;;;;;;11.52;6.82;;;;;;;;;;5084881;28;20052;-70
2024/01/26 07:34:07;;;;;;;7.05;5.60;;;;;;;;;;5079698;28;20197;-68
2024/01/26 07:36:36;;;;;;;8.20;5.85;;;;;;;;;;5066515;28;20154;-68
2024/01/26 07:39:05;;;;;;;11.07;6.07;;;;;;;;;;5082280;28;20036;-68
2024/01/26 07:41:32;;;;;;;;;;;;;;;;;;5078724;28;20140;-70
2024/01/26 07:43:59;;;;;;;8.60;6.65;;;;;;;;;;5088352;28;19926;-70
2024/01/26 07:46:26;;;;;;;8.40;6.50;;;;;;;;;;5084054;28;20044;-71
2024/01/26 07:48:52;;;;;;;8.57;6.75;;;;;;;;;;5068613;28;20056;-70
2024/01/26 07:51:19;;;;;;;9.20;7.05;;;;;;;;;;5076305;28;20082;-70
2024/01/26 07:53:46;;;;;;;10.65;6.85;;;;;;;;;;5086446;28;20487;-68
2024/01/26 07:56:12;;;;;;;8.60;6.70;;;;;;;;;;5097437;28;20056;-69
2024/01/26 07:58:38;;;;;;;11.07;7.18;;;;;;;;;;5080002;28;20067;-68
2024/01/26 08:01:09;;;;;;;10.70;7.60;;;;;;;;;;5093609;28;20051;-68
2024/01/26 08:03:36;;;;;;;14.60;8.60;;;;;;;;;;5085967;28;20062;-68
2024/01/26 08:06:02;;;;;;;12.43;8.23;;;;;;;;;;5081160;28;20803;-67
2024/01/26 08:08:29;;;;;;;11.00;8.05;;;;;;;;;;5065677;28;20040;-68
2024/01/26 08:10:57;;;;;;;15.20;9.45;;;;;;;;;;5076689;28;20665;-68
2024/01/26 08:13:23;;;;;;;12.23;8.03;;;;;;;;;;5076604;28;20138;-68
2024/01/26 08:15:50;;;;;;;12.20;9.65;;;;;;;;;;5082565;28;20066;-68
2024/01/26 08:18:16;;;;;;;10.07;8.23;;;;;;;;;;5088788;28;20517;-69
2024/01/26 08:20:43;;;;;;;12.52;8.77;;;;;;;;;;5079550;28;20055;-68
2024/01/26 08:23:09;;;;;;;11.57;8.65;;;;;;;;;;5090597;28;20052;-72
2024/01/26 08:25:36;;;;;;;13.65;9.13;;;;;;;;;;5088561;28;20043;-69
2024/01/26 08:28:02;;;;;;;9.82;7.82;;;;;;;;;;5082334;28;20041;-71
2024/01/26 08:30:29;;;;;;;11.57;8.82;;;;;;;;;;5070643;28;20539;-70
2024/01/26 08:32:55;;;;;;;12.63;8.48;;;;;;;;;;5078618;28;20047;-69
2024/01/26 08:35:22;;;;;;;11.45;8.55;;;;;;;;;;5084442;28;20048;-70
2024/01/26 08:37:48;;;;;;;11.18;8.93;;;;;;;;;;5082423;28;20075;-69
2024/01/26 08:40:15;;;;;;;11.32;8.93;;;;;;;;;;5088233;28;20712;-71
2024/01/26 08:42:43;;;;;;;12.23;9.50;;;;;;;;;;5085686;28;20130;-68
2024/01/26 08:45:09;;;;;;;12.23;9.90;;;;;;;;;;5065318;28;20098;-67
2024/01/26 08:47:36;;;;;;;14.20;9.18;;;;;;;;;;5087224;28;20044;-70
2024/01/26 08:50:03;;;;;;;13.00;8.90;;;;;;;;;;5088403;28;20139;-68
2024/01/26 08:52:29;;;;;;;13.18;9.75;;;;;;;;;;5088910;28;20072;-70
2024/01/26 08:54:56;;;;;;;11.88;9.20;;;;;;;;;;5088041;28;20071;-67
2024/01/26 08:57:22;;;;;;;10.77;8.77;;;;;;;;;;5077627;28;20051;-68
2024/01/26 08:59:49;;;;;;;11.70;8.98;;;;;;;;;;5071141;28;20480;-69
2024/01/26 09:02:15;;;;;;;11.98;8.93;;;;;;;;;;5089759;28;20143;-68
2024/01/26 09:04:42;;;;;;;11.15;8.45;;;;;;;;;;5087189;28;20044;-68
2024/01/26 09:07:08;;;;;;;9.23;7.30;;;;;;;;;;5082022;28;20043;-68
2024/01/26 09:09:37;;;;;;;13.67;7.60;;;;;;;;;;5087619;28;20048;-67
2024/01/26 09:12:03;;;;;;;11.40;7.10;;;;;;;;;;5083199;28;20054;-71
2024/01/26 09:14:30;;;;;;;10.77;7.65;;;;;;;;;;5061130;28;20403;-68
2024/01/26 09:16:57;;;;;;;11.18;7.72;;;;;;;;;;5087610;28;20050;-72
2024/01/26 09:19:23;;;;;;;10.48;7.07;;;;;;;;;;5063632;28;20044;-71
2024/01/26 09:21:51;;;;;;;9.52;5.80;;;;;;;;;;5091305;28;20044;-70
2024/01/26 09:24:17;;;;;;;9.80;5.60;;;;;;;;;;5087595;28;20083;-71
2024/01/26 09:26:44;;;;;;;9.57;5.60;;;;;;;;;;5088553;28;20044;-73
2024/01/26 09:29:11;;;;;;;9.32;4.32;;;;;;;;;;5085462;28;20048;-70
2024/01/26 09:31:38;;;;;;;10.57;3.45;;;;;;;;;;5080481;28;20048;-69
2024/01/26 09:34:04;;;;;;;8.50;3.10;;;;;;;;;;5087430;28;20097;-69
2024/01/26 09:36:31;;;;;;;9.45;2.85;;;;;;;;;;5080889;28;20047;-69
2024/01/26 09:38:57;;;;;;;5.93;2.60;;;;;;;;;;5083719;28;20986;-69
2024/01/26 09:41:24;;;;;;;7.72;1.88;;;;;;;;;;5070965;28;20064;-69
2024/01/26 09:43:50;;;;;;;5.78;1.33;;;;;;;;;;5080500;28;20044;-70
2024/01/26 09:46:17;;;;;;;8.43;1.65;;;;;;;;;;5095432;28;20464;-69
2024/01/26 09:48:44;;;;;;;7.75;1.38;;;;;;;;;;5079353;28;20101;-69
2024/01/26 09:51:11;;;;;;;4.90;1.40;;;;;;;;;;5078172;28;20059;-69
2024/01/26 09:53:38;;;;;;;7.00;1.17;;;;;;;;;;5075493;28;20607;-68
2024/01/26 09:56:05;;;;;;;7.20;1.58;;;;;;;;;;5080248;28;20044;-70
2024/01/26 09:58:32;;;;;;;6.38;1.20;;;;;;;;;;5091520;28;20039;-69
2024/01/26 10:00:58;;;;;;;4.00;0.82;;;;;;;;;;5085118;28;20521;-68
2024/01/26 10:03:25;;;;;;;3.40;0.80;;;;;;;;;;5091107;28;20052;-69
2024/01/26 10:05:51;;;;;;;4.18;0.73;;;;;;;;;;5058823;28;20643;-69
2024/01/26 10:08:18;;;;;;;7.18;1.02;;;;;;;;;;5077062;28;20043;-69
2024/01/26 10:10:44;;;;;;;5.80;0.82;;;;;;;;;;5082696;28;20134;-68
2024/01/26 10:13:12;;;;;;;8.40;1.20;;;;;;;;;;5061037;28;20056;-72
2024/01/26 10:15:38;;;;;;;5.03;0.80;;;;;;;;;;5086486;28;20040;-69
2024/01/26 10:18:05;;;;;;;6.03;0.80;;;;;;;;;;5080515;28;20534;-68
2024/01/26 10:20:32;;;;;;;8.20;1.08;;;;;;;;;;5084950;28;20110;-69
2024/01/26 10:22:58;;;;;;;5.88;0.80;;;;;;;;;;5080620;28;20930;-68
2024/01/26 10:25:25;;;;;;;6.53;0.88;;;;;;;;;;5065703;28;20155;-68
2024/01/26 10:27:52;;;;;;;6.53;0.73;;;;;;;;;;5086161;28;20055;-68
2024/01/26 10:30:19;;;;;;;6.15;0.80;;;;;;;;;;5080493;28;20080;-67
2024/01/26 10:32:47;;;;;;;10.40;1.42;;;;;;;;;;5086101;28;20138;-68
2024/01/26 10:35:16;;;;;;;8.70;1.08;;;;;;;;;;5066663;28;20460;-68
2024/01/26 10:37:44;;;;;;;6.80;0.95;;;;;;;;;;5081742;28;20047;-67
2024/01/26 10:40:15;;;;;;;7.93;1.15;;;;;;;;;;5079288;28;20685;-68
2024/01/26 10:42:43;;;;;;;7.72;0.80;;;;;;;;;;5084610;28;20052;-70
2024/01/26 10:45:10;;;;;;;9.98;1.80;;;;;;;;;;5068465;28;20064;-70
2024/01/26 10:47:38;;;;;;;8.80;1.77;;;;;;;;;;5079463;28;20093;-70
2024/01/26 10:50:06;;;;;;;10.13;1.38;;;;;;;;;;5085668;28;20039;-70
2024/01/26 10:52:37;;;;;;;6.80;1.63;;;;;;;;;;5074704;28;20040;-69
2024/01/26 10:55:05;;;;;;;9.27;1.38;;;;;;;;;;5086141;28;20514;-70
2024/01/26 10:57:31;;;;;;;7.65;1.00;;;;;;;;;;5092662;28;20079;-71
2024/01/26 10:59:58;;;;;;;10.60;1.35;;;;;;;;;;5087360;28;20083;-69
2024/01/26 11:02:31;;;;;;;8.65;1.50;;;;;;;;;;5085025;28;20067;-69
2024/01/26 11:04:58;;;;;;;10.60;1.35;;;;;;;;;;5072461;28;20063;-69
2024/01/26 11:07:25;;;;;;;9.70;2.15;;;;;;;;;;5076288;28;20109;-69
2024/01/26 11:09:53;;;;;;;10.73;1.63;;;;;;;;;;5079727;28;20113;-71
2024/01/26 11:12:25;;;;;;;17.30;1.60;;;;;;;;;;5084886;28;20771;-69
2024/01/26 11:15:09;;;;;;;9.48;1.90;;;;;;;;;;5084575;28;20137;-69
2024/01/26 11:17:58;;;;;;;9.38;1.63;;;;;;;;;;5083762;28;20422;-70
2024/01/26 11:20:29;;;;;;;;;;;;;;;;;;5077693;28;20059;-69
2024/01/26 11:22:58;;;;;;;4.78;1.00;;;;;;;;;;5083632;28;19939;-70
2024/01/26 11:25:25;;;;;;;11.18;1.40;;;;;;;;;;5067145;28;20055;-67
2024/01/26 11:27:58;;;;;;;8.95;1.20;;;;;;;;;;5079110;28;20099;-68
2024/01/26 11:30:26;;;;;;;6.68;1.42;;;;;;;;;;5066676;28;20044;-67
2024/01/26 11:32:52;;;;;;;7.40;0.93;;;;;;;;;;5072623;28;20495;-69
2024/01/26 11:35:21;;;;;;;9.30;1.30;;;;;;;;;;5083788;28;20044;-69
2024/01/26 11:37:53;;;;;;;10.23;1.60;;;;;;;;;;5066503;28;20461;-68
2024/01/26 11:40:20;;;;;;;9.57;1.45;;;;;;;;;;5060419;28;20055;-68
2024/01/26 11:42:48;;;;;;;9.90;1.55;;;;;;;;;;5066658;28;20122;-70
2024/01/26 11:45:35;;;;;;;11.32;1.55;;;;;;;;;;5076050;28;20055;-71
2024/01/26 11:48:04;;;;;;;9.88;1.52;;;;;;;;;;5069627;28;20473;-69
2024/01/26 11:50:30;;;;;;;11.65;1.58;;;;;;;;;;5078249;28;20044;-69
2024/01/26 11:52:57;;;;;;;8.52;1.48;;;;;;;;;;5084466;28;20649;-69
2024/01/26 11:55:24;;;;;;;6.28;1.10;;;;;;;;;;5067436;28;20135;-69
2024/01/26 11:57:54;;;;;;;9.15;1.80;;;;;;;;;;5080497;28;20131;-70
2024/01/26 12:00:20;;;;;;;7.80;1.20;;;;;;;;;;5084172;28;20139;-69
2024/01/26 12:02:47;;;;;;;13.70;2.33;;;;;;;;;;5055168;28;20067;-69
2024/01/26 12:05:17;;;;;;;9.52;1.38;;;;;;;;;;5085100;28;20057;-69
2024/01/26 12:07:46;;;;;;;7.03;1.42;;;;;;;;;;5053736;28;20547;-69
2024/01/26 12:10:14;;;;;;;10.95;1.55;;;;;;;;;;5085275;28;20679;-69
2024/01/26 12:12:42;;;;;;;12.10;1.77;;;;;;;;;;5084155;28;20050;-69
2024/01/26 12:15:09;;;;;;;9.25;1.67;;;;;;;;;;5072878;28;20319;-69
2024/01/26 12:17:36;;;;;;;8.40;1.40;;;;;;;;;;5084791;28;20056;-69
2024/01/26 12:20:08;;;;;;;11.55;2.10;;;;;;;;;;5077611;28;20048;-70
2024/01/26 12:22:34;;;;;;;11.90;1.58;;;;;;;;;;5066091;28;20040;-69
2024/01/26 12:25:03;;;;;;;14.45;1.80;;;;;;;;;;5080968;28;20058;-70
2024/01/26 12:27:29;;;;;;;12.02;1.90;;;;;;;;;;5078251;28;20120;-69
2024/01/26 12:29:55;;;;;;;12.10;1.80;;;;;;;;;;5083522;28;20159;-69
2024/01/26 12:32:22;;;;;;;11.60;1.73;;;;;;;;;;5082596;28;20155;-69
2024/01/26 12:34:48;;;;;;;9.88;1.60;;;;;;;;;;5069288;28;20052;-69
2024/01/26 12:37:15;;;;;;;14.35;1.88;;;;;;;;;;5083001;28;20066;-69
2024/01/26 12:39:42;;;;;;;14.25;1.85;;;;;;;;;;5087530;28;20067;-69
2024/01/26 12:42:08;;;;;;;12.48;1.75;;;;;;;;;;5085097;28;20128;-70
2024/01/26 12:44:38;;;;;;;12.35;1.98;;;;;;;;;;5080276;28;20052;-69
2024/01/26 12:47:04;;;;;;;8.05;1.77;;;;;;;;;;5087437;28;20052;-68
2024/01/26 12:49:32;;;;;;;12.15;2.10;;;;;;;;;;5090754;28;20075;-69
2024/01/26 12:51:58;;;;;;;12.25;2.47;;;;;;;;;;5086935;28;20068;-69
2024/01/26 12:54:25;;;;;;;12.73;2.28;;;;;;;;;;5078937;28;20166;-69
2024/01/26 12:56:51;;;;;;;9.98;1.85;;;;;;;;;;5083735;28;20075;-68
2024/01/26 12:59:18;;;;;;;13.23;2.33;;;;;;;;;;5093354;28;20059;-69
2024/01/26 13:01:44;;;;;;;12.25;1.95;;;;;;;;;;5083562;28;20044;-69
2024/01/26 13:04:11;;;;;;;8.95;1.50;;;;;;;;;;5087776;28;20048;-68
2024/01/26 13:06:37;;;;;;;13.15;1.92;;;;;;;;;;5082428;28;20056;-69
2024/01/26 13:09:07;;;;;;;23.45;2.28;;;;;;;;;;5083390;28;20105;-69
2024/01/26 13:11:34;;;;;;;13.82;1.95;;;;;;;;;;5079758;28;20174;-70
2024/01/26 13:14:01;;;;;;;14.27;1.70;;;;;;;;;;5069228;28;20055;-69
2024/01/26 13:16:28;;;;;;;14.63;2.65;;;;;;;;;;5087673;28;20048;-69
2024/01/26 13:18:55;;;;;;;9.60;2.13;;;;;;;;;;5081351;28;20080;-69
2024/01/26 13:21:21;;;;;;;8.68;1.50;;;;;;;;;;5086540;28;20748;-69
2024/01/26 13:23:48;;;;;;;14.30;1.90;;;;;;;;;;5075650;28;20089;-69
2024/01/26 13:26:15;;;;;;;10.73;1.52;;;;;;;;;;5086633;28;20051;-69
2024/01/26 13:28:42;;;;;;;11.55;1.75;;;;;;;;;;5089110;28;20098;-69
2024/01/26 13:31:08;;;;;;;16.77;2.40;;;;;;;;;;5063479;28;20083;-69
2024/01/26 13:33:35;;;;;;;11.15;2.28;;;;;;;;;;5087733;28;20603;-68
2024/01/26 13:36:02;;;;;;;11.88;2.00;;;;;;;;;;5077367;28;20059;-69
2024/01/26 13:38:31;;;;;;;18.00;2.47;;;;;;;;;;5082384;28;20060;-69
2024/01/26 13:40:57;;;;;;;;;;;;;;;;;;5080809;28;20338;-70
2024/01/26 13:43:26;;;;;;;8.60;1.75;;;;;;;;;;5086570;28;19982;-69
2024/01/26 13:45:54;;;;;;;12.45;1.73;;;;;;;;;;5094444;28;20055;-69
2024/01/26 13:48:21;;;;;;;12.48;1.67;;;;;;;;;;5081340;28;20545;-69
2024/01/26 13:50:52;;;;;;;13.18;1.95;;;;;;;;;;5082889;28;20530;-69
2024/01/26 13:53:21;;;;;;;7.15;1.42;;;;;;;;;;5070246;28;20399;-69
2024/01/26 13:55:48;;;;;;;10.27;1.60;;;;;;;;;;5068126;28;20135;-70
2024/01/26 13:58:15;;;;;;;7.10;1.20;;;;;;;;;;5086404;28;20051;-69
2024/01/26 14:00:43;;;;;;;7.38;1.42;;;;;;;;;;5089137;28;20040;-70
2024/01/26 14:03:10;;;;;;;12.23;2.17;;;;;;;;;;5087140;28;20056;-69
2024/01/26 14:05:37;;;;;;;8.32;1.50;;;;;;;;;;5052926;28;20654;-69
2024/01/26 14:08:05;;;;;;;12.45;1.85;;;;;;;;;;5056681;28;20049;-69
2024/01/26 14:10:31;;;;;;;7.05;1.40;;;;;;;;;;5080720;28;20048;-68
2024/01/26 14:12:58;;;;;;;7.93;1.67;;;;;;;;;;5085793;28;20474;-69
2024/01/26 14:15:24;;;;;;;9.88;1.73;;;;;;;;;;5082754;28;20070;-69
2024/01/26 14:17:51;;;;;;;9.07;1.70;;;;;;;;;;5081296;28;20047;-68
2024/01/26 14:20:21;;;;;;;12.45;1.73;;;;;;;;;;5082147;28;20044;-69
2024/01/26 14:22:49;;;;;;;12.27;1.80;;;;;;;;;;5079612;28;20151;-70
2024/01/26 14:25:23;;;;;;;18.15;2.42;;;;;;;;;;5086653;28;20067;-69
2024/01/26 14:27:50;;;;;;;14.13;1.75;;;;;;;;;;5079579;28;20094;-69
2024/01/26 14:30:17;;;;;;;15.05;2.55;;;;;;;;;;5086490;28;20468;-69
2024/01/26 14:32:43;;;;;;;14.52;2.05;;;;;;;;;;5080532;28;20052;-69